sensor_id;sensor_type;location;lat;lon;timestamp;P1;durP1;ratioP1;P2;durP2;ratioP2
58366;SDS011;57745;42.524;12.052;2023-04-03T00:01:11;2.25;;;1.27;;
58366;SDS011;57745;42.524;12.052;2023-04-03T00:03:37;4.63;;;1.10;;
58366;SDS011;57745;42.524;12.052;2023-04-03T00:06:02;3.00;;;1.13;;
58366;SDS011;57745;42.524;12.052;2023-04-03T00:08:29;4.72;;;1.10;;
58366;SDS011;57745;42.524;12.052;2023-04-03T00:10:57;2.42;;;0.93;;
58366;SDS011;57745;42.524;12.052;2023-04-03T00:13:23;1.75;;;1.20;;
58366;SDS011;57745;42.524;12.052;2023-04-03T00:15:50;4.30;;;1.45;;
58366;SDS011;57745;42.524;12.052;2023-04-03T00:18:15;2.38;;;0.90;;
58366;SDS011;57745;42.524;12.052;2023-04-03T00:20:41;1.10;;;0.68;;
58366;SDS011;57745;42.524;12.052;2023-04-03T00:23:06;1.27;;;0.70;;
58366;SDS011;57745;42.524;12.052;2023-04-03T00:25:32;1.73;;;0.70;;
58366;SDS011;57745;42.524;12.052;2023-04-03T00:27:58;1.27;;;0.65;;
58366;SDS011;57745;42.524;12.052;2023-04-03T00:30:23;1.88;;;0.80;;
58366;SDS011;57745;42.524;12.052;2023-04-03T00:32:49;2.55;;;0.90;;
58366;SDS011;57745;42.524;12.052;2023-04-03T00:35:17;2.70;;;0.90;;
58366;SDS011;57745;42.524;12.052;2023-04-03T00:37:44;1.45;;;0.70;;
58366;SDS011;57745;42.524;12.052;2023-04-03T00:40:11;1.13;;;0.70;;
58366;SDS011;57745;42.524;12.052;2023-04-03T00:42:39;2.13;;;0.95;;
58366;SDS011;57745;42.524;12.052;2023-04-03T00:47:31;5.10;;;1.02;;
58366;SDS011;57745;42.524;12.052;2023-04-03T00:49:58;2.92;;;0.90;;
58366;SDS011;57745;42.524;12.052;2023-04-03T00:52:26;4.20;;;1.00;;
58366;SDS011;57745;42.524;12.052;2023-04-03T00:54:56;2.28;;;0.80;;
58366;SDS011;57745;42.524;12.052;2023-04-03T00:57:26;1.70;;;0.90;;
58366;SDS011;57745;42.524;12.052;2023-04-03T00:59:54;3.15;;;0.90;;
58366;SDS011;57745;42.524;12.052;2023-04-03T01:02:23;2.42;;;0.80;;
58366;SDS011;57745;42.524;12.052;2023-04-03T01:04:48;3.83;;;0.77;;
58366;SDS011;57745;42.524;12.052;2023-04-03T01:09:45;3.20;;;0.73;;
58366;SDS011;57745;42.524;12.052;2023-04-03T01:12:17;4.22;;;1.00;;
58366;SDS011;57745;42.524;12.052;2023-04-03T01:14:46;2.65;;;1.20;;
58366;SDS011;57745;42.524;12.052;2023-04-03T01:17:33;4.03;;;1.33;;
58366;SDS011;57745;42.524;12.052;2023-04-03T01:23:06;1.88;;;1.08;;
58366;SDS011;57745;42.524;12.052;2023-04-03T01:25:54;2.75;;;0.95;;
58366;SDS011;57745;42.524;12.052;2023-04-03T01:28:29;1.38;;;0.80;;
58366;SDS011;57745;42.524;12.052;2023-04-03T01:31:14;3.67;;;0.80;;
58366;SDS011;57745;42.524;12.052;2023-04-03T01:33:45;2.35;;;0.85;;
58366;SDS011;57745;42.524;12.052;2023-04-03T01:36:14;1.65;;;0.90;;
58366;SDS011;57745;42.524;12.052;2023-04-03T01:38:42;1.50;;;0.90;;
58366;SDS011;57745;42.524;12.052;2023-04-03T01:41:07;2.58;;;0.80;;
58366;SDS011;57745;42.524;12.052;2023-04-03T01:43:33;1.92;;;0.75;;
58366;SDS011;57745;42.524;12.052;2023-04-03T01:45:58;3.20;;;0.90;;
58366;SDS011;57745;42.524;12.052;2023-04-03T01:48:23;3.13;;;0.85;;
58366;SDS011;57745;42.524;12.052;2023-04-03T01:50:49;1.95;;;0.70;;
58366;SDS011;57745;42.524;12.052;2023-04-03T01:53:14;3.83;;;0.80;;
58366;SDS011;57745;42.524;12.052;2023-04-03T01:55:40;3.60;;;0.80;;
58366;SDS011;57745;42.524;12.052;2023-04-03T01:58:05;2.25;;;0.82;;
58366;SDS011;57745;42.524;12.052;2023-04-03T02:00:31;1.30;;;0.70;;
58366;SDS011;57745;42.524;12.052;2023-04-03T02:02:56;1.63;;;0.85;;
58366;SDS011;57745;42.524;12.052;2023-04-03T02:05:22;2.67;;;0.60;;
58366;SDS011;57745;42.524;12.052;2023-04-03T02:07:48;3.03;;;0.80;;
58366;SDS011;57745;42.524;12.052;2023-04-03T02:10:13;1.05;;;0.65;;
58366;SDS011;57745;42.524;12.052;2023-04-03T02:12:39;0.90;;;0.50;;
58366;SDS011;57745;42.524;12.052;2023-04-03T02:15:05;2.42;;;0.60;;
58366;SDS011;57745;42.524;12.052;2023-04-03T02:17:31;2.45;;;0.75;;
58366;SDS011;57745;42.524;12.052;2023-04-03T02:19:56;1.95;;;0.80;;
58366;SDS011;57745;42.524;12.052;2023-04-03T02:22:22;1.38;;;1.13;;
58366;SDS011;57745;42.524;12.052;2023-04-03T02:24:47;1.38;;;0.60;;
58366;SDS011;57745;42.524;12.052;2023-04-03T02:27:13;1.63;;;0.82;;
58366;SDS011;57745;42.524;12.052;2023-04-03T02:29:39;1.13;;;0.80;;
58366;SDS011;57745;42.524;12.052;2023-04-03T02:32:05;0.80;;;0.52;;
58366;SDS011;57745;42.524;12.052;2023-04-03T02:34:30;1.15;;;0.63;;
58366;SDS011;57745;42.524;12.052;2023-04-03T02:36:56;1.58;;;0.80;;
58366;SDS011;57745;42.524;12.052;2023-04-03T02:39:22;2.90;;;0.65;;
58366;SDS011;57745;42.524;12.052;2023-04-03T02:41:47;1.52;;;0.70;;
58366;SDS011;57745;42.524;12.052;2023-04-03T02:44:13;1.48;;;0.50;;
58366;SDS011;57745;42.524;12.052;2023-04-03T02:46:38;1.30;;;0.80;;
58366;SDS011;57745;42.524;12.052;2023-04-03T02:49:04;1.90;;;0.80;;
58366;SDS011;57745;42.524;12.052;2023-04-03T02:51:29;1.63;;;0.50;;
58366;SDS011;57745;42.524;12.052;2023-04-03T02:53:55;2.17;;;0.95;;
58366;SDS011;57745;42.524;12.052;2023-04-03T02:56:20;4.20;;;0.95;;
58366;SDS011;57745;42.524;12.052;2023-04-03T02:58:46;2.90;;;0.73;;
58366;SDS011;57745;42.524;12.052;2023-04-03T03:01:11;4.25;;;0.70;;
58366;SDS011;57745;42.524;12.052;2023-04-03T03:03:37;2.50;;;0.80;;
58366;SDS011;57745;42.524;12.052;2023-04-03T03:06:13;1.50;;;0.70;;
58366;SDS011;57745;42.524;12.052;2023-04-03T03:08:40;1.88;;;0.88;;
58366;SDS011;57745;42.524;12.052;2023-04-03T03:11:06;1.35;;;1.00;;
58366;SDS011;57745;42.524;12.052;2023-04-03T03:13:32;2.78;;;0.80;;
58366;SDS011;57745;42.524;12.052;2023-04-03T03:15:58;5.65;;;0.80;;
58366;SDS011;57745;42.524;12.052;2023-04-03T03:18:24;3.83;;;0.80;;
58366;SDS011;57745;42.524;12.052;2023-04-03T03:20:53;1.30;;;0.70;;
58366;SDS011;57745;42.524;12.052;2023-04-03T03:23:23;1.65;;;0.88;;
58366;SDS011;57745;42.524;12.052;2023-04-03T03:25:57;1.35;;;0.68;;
58366;SDS011;57745;42.524;12.052;2023-04-03T03:28:24;4.65;;;0.70;;
58366;SDS011;57745;42.524;12.052;2023-04-03T03:30:50;1.08;;;0.80;;
58366;SDS011;57745;42.524;12.052;2023-04-03T03:33:16;2.47;;;0.80;;
58366;SDS011;57745;42.524;12.052;2023-04-03T03:35:42;1.42;;;1.00;;
58366;SDS011;57745;42.524;12.052;2023-04-03T03:38:08;1.58;;;0.60;;
58366;SDS011;57745;42.524;12.052;2023-04-03T03:40:34;3.90;;;0.65;;
58366;SDS011;57745;42.524;12.052;2023-04-03T03:43:00;1.95;;;0.80;;
58366;SDS011;57745;42.524;12.052;2023-04-03T03:45:25;1.73;;;0.65;;
58366;SDS011;57745;42.524;12.052;2023-04-03T03:47:51;1.15;;;0.77;;
58366;SDS011;57745;42.524;12.052;2023-04-03T03:50:17;2.40;;;0.70;;
58366;SDS011;57745;42.524;12.052;2023-04-03T03:52:42;3.03;;;1.23;;
58366;SDS011;57745;42.524;12.052;2023-04-03T03:55:08;3.05;;;0.75;;
58366;SDS011;57745;42.524;12.052;2023-04-03T03:57:33;2.72;;;1.42;;
58366;SDS011;57745;42.524;12.052;2023-04-03T03:59:59;4.90;;;0.90;;
58366;SDS011;57745;42.524;12.052;2023-04-03T04:02:24;2.55;;;0.90;;
58366;SDS011;57745;42.524;12.052;2023-04-03T04:04:50;0.98;;;0.68;;
58366;SDS011;57745;42.524;12.052;2023-04-03T04:07:15;1.90;;;0.68;;
58366;SDS011;57745;42.524;12.052;2023-04-03T04:09:41;1.80;;;0.70;;
58366;SDS011;57745;42.524;12.052;2023-04-03T04:12:06;2.30;;;0.80;;
58366;SDS011;57745;42.524;12.052;2023-04-03T04:14:32;2.40;;;0.80;;
58366;SDS011;57745;42.524;12.052;2023-04-03T04:16:57;3.83;;;0.88;;
58366;SDS011;57745;42.524;12.052;2023-04-03T04:19:23;2.17;;;0.88;;
58366;SDS011;57745;42.524;12.052;2023-04-03T04:21:48;2.10;;;1.13;;
58366;SDS011;57745;42.524;12.052;2023-04-03T04:24:14;2.75;;;1.10;;
58366;SDS011;57745;42.524;12.052;2023-04-03T04:26:40;2.58;;;0.75;;
58366;SDS011;57745;42.524;12.052;2023-04-03T04:29:05;0.80;;;0.68;;
58366;SDS011;57745;42.524;12.052;2023-04-03T04:31:31;3.75;;;0.93;;
58366;SDS011;57745;42.524;12.052;2023-04-03T04:33:56;3.58;;;0.80;;
58366;SDS011;57745;42.524;12.052;2023-04-03T04:36:22;1.73;;;0.82;;
58366;SDS011;57745;42.524;12.052;2023-04-03T04:38:47;3.42;;;0.80;;
58366;SDS011;57745;42.524;12.052;2023-04-03T04:41:12;1.83;;;0.80;;
58366;SDS011;57745;42.524;12.052;2023-04-03T04:43:38;2.97;;;1.10;;
58366;SDS011;57745;42.524;12.052;2023-04-03T04:46:08;2.42;;;0.95;;
58366;SDS011;57745;42.524;12.052;2023-04-03T04:48:35;1.58;;;0.88;;
58366;SDS011;57745;42.524;12.052;2023-04-03T04:51:01;1.23;;;0.85;;
58366;SDS011;57745;42.524;12.052;2023-04-03T04:53:27;3.00;;;0.95;;
58366;SDS011;57745;42.524;12.052;2023-04-03T04:55:53;3.22;;;1.10;;
58366;SDS011;57745;42.524;12.052;2023-04-03T04:58:19;1.25;;;0.85;;
58366;SDS011;57745;42.524;12.052;2023-04-03T05:00:45;2.45;;;0.70;;
58366;SDS011;57745;42.524;12.052;2023-04-03T05:03:11;2.53;;;0.68;;
58366;SDS011;57745;42.524;12.052;2023-04-03T05:05:36;1.60;;;0.70;;
58366;SDS011;57745;42.524;12.052;2023-04-03T05:08:02;2.17;;;0.75;;
58366;SDS011;57745;42.524;12.052;2023-04-03T05:10:28;1.83;;;0.90;;
58366;SDS011;57745;42.524;12.052;2023-04-03T05:12:54;7.55;;;1.20;;
58366;SDS011;57745;42.524;12.052;2023-04-03T05:15:19;1.65;;;0.60;;
58366;SDS011;57745;42.524;12.052;2023-04-03T05:17:45;3.28;;;1.00;;
58366;SDS011;57745;42.524;12.052;2023-04-03T05:20:11;2.00;;;0.70;;
58366;SDS011;57745;42.524;12.052;2023-04-03T05:22:37;1.92;;;0.95;;
58366;SDS011;57745;42.524;12.052;2023-04-03T05:25:02;1.73;;;1.00;;
58366;SDS011;57745;42.524;12.052;2023-04-03T05:27:29;3.13;;;1.30;;
58366;SDS011;57745;42.524;12.052;2023-04-03T05:29:54;4.13;;;1.52;;
58366;SDS011;57745;42.524;12.052;2023-04-03T05:32:21;2.25;;;1.00;;
58366;SDS011;57745;42.524;12.052;2023-04-03T05:34:47;4.60;;;1.10;;
58366;SDS011;57745;42.524;12.052;2023-04-03T05:37:13;3.08;;;0.82;;
58366;SDS011;57745;42.524;12.052;2023-04-03T05:39:38;2.92;;;0.73;;
58366;SDS011;57745;42.524;12.052;2023-04-03T05:42:06;2.90;;;1.10;;
58366;SDS011;57745;42.524;12.052;2023-04-03T05:44:32;3.90;;;1.42;;
58366;SDS011;57745;42.524;12.052;2023-04-03T05:46:58;3.25;;;0.88;;
58366;SDS011;57745;42.524;12.052;2023-04-03T05:49:23;1.30;;;0.73;;
58366;SDS011;57745;42.524;12.052;2023-04-03T05:51:49;4.50;;;0.85;;
58366;SDS011;57745;42.524;12.052;2023-04-03T05:54:20;2.40;;;0.80;;
58366;SDS011;57745;42.524;12.052;2023-04-03T05:56:49;1.07;;;0.87;;
58366;SDS011;57745;42.524;12.052;2023-04-03T05:59:15;2.83;;;0.70;;
58366;SDS011;57745;42.524;12.052;2023-04-03T06:01:41;1.77;;;0.60;;
58366;SDS011;57745;42.524;12.052;2023-04-03T06:04:06;2.05;;;0.60;;
58366;SDS011;57745;42.524;12.052;2023-04-03T06:09:28;1.15;;;0.55;;
58366;SDS011;57745;42.524;12.052;2023-04-03T06:11:54;3.38;;;0.70;;
58366;SDS011;57745;42.524;12.052;2023-04-03T06:14:21;2.35;;;0.50;;
58366;SDS011;57745;42.524;12.052;2023-04-03T06:16:46;2.53;;;0.70;;
58366;SDS011;57745;42.524;12.052;2023-04-03T06:19:12;2.10;;;0.60;;
58366;SDS011;57745;42.524;12.052;2023-04-03T06:21:38;1.50;;;0.63;;
58366;SDS011;57745;42.524;12.052;2023-04-03T06:24:04;1.08;;;0.60;;
58366;SDS011;57745;42.524;12.052;2023-04-03T06:26:30;2.60;;;0.60;;
58366;SDS011;57745;42.524;12.052;2023-04-03T06:28:56;2.15;;;0.70;;
58366;SDS011;57745;42.524;12.052;2023-04-03T06:31:21;1.85;;;0.52;;
58366;SDS011;57745;42.524;12.052;2023-04-03T06:33:47;2.50;;;1.08;;
58366;SDS011;57745;42.524;12.052;2023-04-03T06:36:12;1.42;;;0.57;;
58366;SDS011;57745;42.524;12.052;2023-04-03T06:38:38;1.25;;;0.40;;
58366;SDS011;57745;42.524;12.052;2023-04-03T06:41:04;2.00;;;0.50;;
58366;SDS011;57745;42.524;12.052;2023-04-03T06:43:29;1.45;;;0.60;;
58366;SDS011;57745;42.524;12.052;2023-04-03T06:45:56;2.53;;;0.70;;
58366;SDS011;57745;42.524;12.052;2023-04-03T06:48:22;3.00;;;0.50;;
58366;SDS011;57745;42.524;12.052;2023-04-03T06:50:47;4.68;;;0.70;;
58366;SDS011;57745;42.524;12.052;2023-04-03T06:53:13;1.50;;;0.50;;
58366;SDS011;57745;42.524;12.052;2023-04-03T06:55:38;2.92;;;0.40;;
58366;SDS011;57745;42.524;12.052;2023-04-03T06:58:05;2.83;;;0.47;;
58366;SDS011;57745;42.524;12.052;2023-04-03T07:00:31;3.03;;;0.47;;
58366;SDS011;57745;42.524;12.052;2023-04-03T07:02:56;2.20;;;0.47;;
58366;SDS011;57745;42.524;12.052;2023-04-03T07:05:22;2.08;;;0.90;;
58366;SDS011;57745;42.524;12.052;2023-04-03T07:07:49;2.90;;;0.57;;
58366;SDS011;57745;42.524;12.052;2023-04-03T07:10:16;2.63;;;0.75;;
58366;SDS011;57745;42.524;12.052;2023-04-03T07:12:42;2.22;;;0.50;;
58366;SDS011;57745;42.524;12.052;2023-04-03T07:15:08;1.13;;;0.40;;
58366;SDS011;57745;42.524;12.052;2023-04-03T07:17:34;2.45;;;0.68;;
58366;SDS011;57745;42.524;12.052;2023-04-03T07:20:01;2.97;;;0.80;;
58366;SDS011;57745;42.524;12.052;2023-04-03T07:22:26;3.60;;;0.70;;
58366;SDS011;57745;42.524;12.052;2023-04-03T07:24:53;1.08;;;0.32;;
58366;SDS011;57745;42.524;12.052;2023-04-03T07:27:18;6.53;;;0.57;;
58366;SDS011;57745;42.524;12.052;2023-04-03T07:29:44;3.05;;;0.60;;
58366;SDS011;57745;42.524;12.052;2023-04-03T07:32:10;1.50;;;0.40;;
58366;SDS011;57745;42.524;12.052;2023-04-03T07:34:36;2.17;;;0.47;;
58366;SDS011;57745;42.524;12.052;2023-04-03T07:37:02;3.22;;;0.60;;
58366;SDS011;57745;42.524;12.052;2023-04-03T07:39:27;3.40;;;0.52;;
58366;SDS011;57745;42.524;12.052;2023-04-03T07:41:53;6.13;;;0.82;;
58366;SDS011;57745;42.524;12.052;2023-04-03T07:44:20;4.85;;;1.08;;
58366;SDS011;57745;42.524;12.052;2023-04-03T07:46:46;2.17;;;0.70;;
58366;SDS011;57745;42.524;12.052;2023-04-03T07:49:12;3.17;;;0.70;;
58366;SDS011;57745;42.524;12.052;2023-04-03T07:51:37;3.03;;;0.70;;
58366;SDS011;57745;42.524;12.052;2023-04-03T07:54:03;2.63;;;0.70;;
58366;SDS011;57745;42.524;12.052;2023-04-03T07:56:29;2.05;;;0.55;;
58366;SDS011;57745;42.524;12.052;2023-04-03T07:58:54;3.80;;;0.77;;
58366;SDS011;57745;42.524;12.052;2023-04-03T08:01:20;2.58;;;0.50;;
58366;SDS011;57745;42.524;12.052;2023-04-03T08:03:45;3.00;;;0.60;;
58366;SDS011;57745;42.524;12.052;2023-04-03T08:06:11;5.63;;;0.70;;
58366;SDS011;57745;42.524;12.052;2023-04-03T08:08:38;2.90;;;0.60;;
58366;SDS011;57745;42.524;12.052;2023-04-03T08:11:04;10.13;;;1.30;;
58366;SDS011;57745;42.524;12.052;2023-04-03T08:13:31;2.95;;;0.70;;
58366;SDS011;57745;42.524;12.052;2023-04-03T08:15:56;5.10;;;0.70;;
58366;SDS011;57745;42.524;12.052;2023-04-03T08:18:24;2.17;;;0.43;;
58366;SDS011;57745;42.524;12.052;2023-04-03T08:20:51;4.10;;;0.60;;
58366;SDS011;57745;42.524;12.052;2023-04-03T08:23:17;2.03;;;0.63;;
58366;SDS011;57745;42.524;12.052;2023-04-03T08:25:43;2.20;;;0.60;;
58366;SDS011;57745;42.524;12.052;2023-04-03T08:28:10;4.22;;;0.60;;
58366;SDS011;57745;42.524;12.052;2023-04-03T08:30:38;4.68;;;0.73;;
58366;SDS011;57745;42.524;12.052;2023-04-03T08:33:05;3.95;;;0.70;;
58366;SDS011;57745;42.524;12.052;2023-04-03T08:35:31;2.92;;;0.70;;
58366;SDS011;57745;42.524;12.052;2023-04-03T08:37:56;1.50;;;0.60;;
58366;SDS011;57745;42.524;12.052;2023-04-03T08:40:22;2.25;;;0.50;;
58366;SDS011;57745;42.524;12.052;2023-04-03T08:48:19;6.85;;;1.65;;
58366;SDS011;57745;42.524;12.052;2023-04-03T08:50:50;3.85;;;0.90;;
58366;SDS011;57745;42.524;12.052;2023-04-03T08:53:23;3.67;;;0.90;;
58366;SDS011;57745;42.524;12.052;2023-04-03T08:55:53;3.15;;;0.80;;
58366;SDS011;57745;42.524;12.052;2023-04-03T08:58:55;6.53;;;0.73;;
58366;SDS011;57745;42.524;12.052;2023-04-03T09:01:19;1.52;;;0.60;;
58366;SDS011;57745;42.524;12.052;2023-04-03T09:03:48;6.18;;;0.95;;
58366;SDS011;57745;42.524;12.052;2023-04-03T09:08:47;2.05;;;0.70;;
58366;SDS011;57745;42.524;12.052;2023-04-03T09:11:36;3.35;;;0.93;;
58366;SDS011;57745;42.524;12.052;2023-04-03T09:14:26;2.97;;;0.73;;
58366;SDS011;57745;42.524;12.052;2023-04-03T09:17:03;5.30;;;0.77;;
58366;SDS011;57745;42.524;12.052;2023-04-03T09:22:34;4.32;;;0.80;;
58366;SDS011;57745;42.524;12.052;2023-04-03T09:25:17;1.57;;;0.60;;
58366;SDS011;57745;42.524;12.052;2023-04-03T09:27:59;2.35;;;0.60;;
58366;SDS011;57745;42.524;12.052;2023-04-03T09:30:25;4.72;;;0.80;;
58366;SDS011;57745;42.524;12.052;2023-04-03T09:32:53;4.57;;;0.93;;
58366;SDS011;57745;42.524;12.052;2023-04-03T09:38:16;4.93;;;0.90;;
58366;SDS011;57745;42.524;12.052;2023-04-03T09:40:45;1.83;;;0.85;;
58366;SDS011;57745;42.524;12.052;2023-04-03T09:43:31;3.05;;;0.75;;
58366;SDS011;57745;42.524;12.052;2023-04-03T09:48:58;2.17;;;0.70;;
58366;SDS011;57745;42.524;12.052;2023-04-03T09:51:26;8.25;;;0.90;;
58366;SDS011;57745;42.524;12.052;2023-04-03T09:53:53;6.10;;;0.75;;
58366;SDS011;57745;42.524;12.052;2023-04-03T09:59:29;2.65;;;0.80;;
58366;SDS011;57745;42.524;12.052;2023-04-03T10:01:41;2.47;;;0.52;;
58366;SDS011;57745;42.524;12.052;2023-04-03T10:06:50;2.75;;;1.00;;
58366;SDS011;57745;42.524;12.052;2023-04-03T10:11:57;2.40;;;0.70;;
58366;SDS011;57745;42.524;12.052;2023-04-03T10:14:23;5.15;;;0.75;;
58366;SDS011;57745;42.524;12.052;2023-04-03T10:19:41;3.28;;;1.40;;
58366;SDS011;57745;42.524;12.052;2023-04-03T10:28:13;6.63;;;1.30;;
58366;SDS011;57745;42.524;12.052;2023-04-03T10:31:04;9.50;;;1.58;;
58366;SDS011;57745;42.524;12.052;2023-04-03T10:39:30;3.80;;;0.77;;
58366;SDS011;57745;42.524;12.052;2023-04-03T10:44:34;5.05;;;1.10;;
58366;SDS011;57745;42.524;12.052;2023-04-03T10:47:20;6.45;;;1.08;;
58366;SDS011;57745;42.524;12.052;2023-04-03T10:54:55;5.78;;;1.05;;
58366;SDS011;57745;42.524;12.052;2023-04-03T10:57:22;4.60;;;1.20;;
58366;SDS011;57745;42.524;12.052;2023-04-03T10:59:54;4.72;;;1.00;;
58366;SDS011;57745;42.524;12.052;2023-04-03T11:05:01;6.75;;;1.17;;
58366;SDS011;57745;42.524;12.052;2023-04-03T11:07:29;4.57;;;0.75;;
58366;SDS011;57745;42.524;12.052;2023-04-03T11:10:03;6.35;;;1.50;;
58366;SDS011;57745;42.524;12.052;2023-04-03T11:12:41;3.47;;;1.17;;
58366;SDS011;57745;42.524;12.052;2023-04-03T11:15:13;4.28;;;0.90;;
58366;SDS011;57745;42.524;12.052;2023-04-03T11:17:43;5.32;;;1.02;;
58366;SDS011;57745;42.524;12.052;2023-04-03T11:20:36;4.93;;;0.85;;
58366;SDS011;57745;42.524;12.052;2023-04-03T11:23:08;8.35;;;1.17;;
58366;SDS011;57745;42.524;12.052;2023-04-03T11:25:46;4.47;;;0.95;;
58366;SDS011;57745;42.524;12.052;2023-04-03T11:28:17;3.40;;;0.90;;
58366;SDS011;57745;42.524;12.052;2023-04-03T11:30:51;7.70;;;1.17;;
58366;SDS011;57745;42.524;12.052;2023-04-03T11:35:56;4.13;;;1.02;;
58366;SDS011;57745;42.524;12.052;2023-04-03T11:38:32;2.95;;;0.80;;
58366;SDS011;57745;42.524;12.052;2023-04-03T11:41:04;3.15;;;0.80;;
58366;SDS011;57745;42.524;12.052;2023-04-03T11:43:32;4.45;;;1.13;;
58366;SDS011;57745;42.524;12.052;2023-04-03T11:46:05;5.18;;;1.20;;
58366;SDS011;57745;42.524;12.052;2023-04-03T11:53:38;8.30;;;1.10;;
58366;SDS011;57745;42.524;12.052;2023-04-03T12:01:48;7.43;;;1.23;;
58366;SDS011;57745;42.524;12.052;2023-04-03T12:04:16;4.38;;;1.10;;
58366;SDS011;57745;42.524;12.052;2023-04-03T12:06:49;11.63;;;1.23;;
58366;SDS011;57745;42.524;12.052;2023-04-03T12:11:48;4.07;;;1.60;;
58366;SDS011;57745;42.524;12.052;2023-04-03T12:14:15;7.25;;;1.10;;
58366;SDS011;57745;42.524;12.052;2023-04-03T12:16:42;3.83;;;1.23;;
58366;SDS011;57745;42.524;12.052;2023-04-03T12:26:44;6.88;;;1.42;;
58366;SDS011;57745;42.524;12.052;2023-04-03T12:29:23;6.97;;;1.83;;
58366;SDS011;57745;42.524;12.052;2023-04-03T12:32:04;7.10;;;1.90;;
58366;SDS011;57745;42.524;12.052;2023-04-03T12:40:42;5.05;;;1.38;;
58366;SDS011;57745;42.524;12.052;2023-04-03T12:43:18;4.20;;;1.48;;
58366;SDS011;57745;42.524;12.052;2023-04-03T12:48:37;11.57;;;1.10;;
58366;SDS011;57745;42.524;12.052;2023-04-03T12:51:39;4.75;;;1.38;;
58366;SDS011;57745;42.524;12.052;2023-04-03T12:54:13;7.18;;;1.42;;
58366;SDS011;57745;42.524;12.052;2023-04-03T12:56:42;6.00;;;1.10;;
58366;SDS011;57745;42.524;12.052;2023-04-03T12:59:21;4.32;;;1.27;;
58366;SDS011;57745;42.524;12.052;2023-04-03T13:01:55;6.75;;;1.10;;
58366;SDS011;57745;42.524;12.052;2023-04-03T13:04:22;5.85;;;1.35;;
58366;SDS011;57745;42.524;12.052;2023-04-03T13:06:48;2.85;;;0.88;;
58366;SDS011;57745;42.524;12.052;2023-04-03T13:09:22;6.93;;;1.25;;
58366;SDS011;57745;42.524;12.052;2023-04-03T13:11:51;5.80;;;1.88;;
58366;SDS011;57745;42.524;12.052;2023-04-03T13:14:29;4.13;;;1.20;;
58366;SDS011;57745;42.524;12.052;2023-04-03T13:16:56;6.15;;;1.08;;
58366;SDS011;57745;42.524;12.052;2023-04-03T13:19:25;4.65;;;1.00;;
58366;SDS011;57745;42.524;12.052;2023-04-03T13:21:54;4.78;;;1.10;;
58366;SDS011;57745;42.524;12.052;2023-04-03T13:24:31;9.20;;;1.75;;
58366;SDS011;57745;42.524;12.052;2023-04-03T13:27:00;5.25;;;1.40;;
58366;SDS011;57745;42.524;12.052;2023-04-03T13:29:30;5.10;;;1.17;;
58366;SDS011;57745;42.524;12.052;2023-04-03T13:31:59;8.75;;;1.75;;
58366;SDS011;57745;42.524;12.052;2023-04-03T13:34:27;5.30;;;1.10;;
58366;SDS011;57745;42.524;12.052;2023-04-03T13:37:00;6.13;;;1.20;;
58366;SDS011;57745;42.524;12.052;2023-04-03T13:39:33;4.15;;;1.00;;
58366;SDS011;57745;42.524;12.052;2023-04-03T13:42:01;3.10;;;1.13;;
58366;SDS011;57745;42.524;12.052;2023-04-03T13:44:40;2.05;;;0.93;;
58366;SDS011;57745;42.524;12.052;2023-04-03T13:49:57;4.97;;;1.08;;
58366;SDS011;57745;42.524;12.052;2023-04-03T13:52:30;7.78;;;1.38;;
58366;SDS011;57745;42.524;12.052;2023-04-03T13:55:02;4.28;;;1.20;;
58366;SDS011;57745;42.524;12.052;2023-04-03T13:57:53;3.88;;;1.10;;
58366;SDS011;57745;42.524;12.052;2023-04-03T14:00:32;8.27;;;1.30;;
58366;SDS011;57745;42.524;12.052;2023-04-03T14:02:58;4.90;;;1.00;;
58366;SDS011;57745;42.524;12.052;2023-04-03T14:05:24;4.47;;;1.00;;
58366;SDS011;57745;42.524;12.052;2023-04-03T14:07:50;5.68;;;1.35;;
58366;SDS011;57745;42.524;12.052;2023-04-03T14:10:16;5.72;;;0.93;;
58366;SDS011;57745;42.524;12.052;2023-04-03T14:12:42;4.47;;;0.90;;
58366;SDS011;57745;42.524;12.052;2023-04-03T14:15:18;7.10;;;1.50;;
58366;SDS011;57745;42.524;12.052;2023-04-03T14:17:48;3.67;;;1.50;;
58366;SDS011;57745;42.524;12.052;2023-04-03T14:20:17;4.80;;;1.38;;
58366;SDS011;57745;42.524;12.052;2023-04-03T14:22:45;8.80;;;1.38;;
58366;SDS011;57745;42.524;12.052;2023-04-03T14:25:11;4.13;;;1.20;;
58366;SDS011;57745;42.524;12.052;2023-04-03T14:27:40;6.05;;;1.38;;
58366;SDS011;57745;42.524;12.052;2023-04-03T14:30:09;4.75;;;1.25;;
58366;SDS011;57745;42.524;12.052;2023-04-03T14:32:39;5.63;;;1.02;;
58366;SDS011;57745;42.524;12.052;2023-04-03T14:35:05;4.80;;;1.17;;
58366;SDS011;57745;42.524;12.052;2023-04-03T14:37:32;4.57;;;1.00;;
58366;SDS011;57745;42.524;12.052;2023-04-03T14:39:58;5.68;;;1.17;;
58366;SDS011;57745;42.524;12.052;2023-04-03T14:42:26;5.25;;;0.98;;
58366;SDS011;57745;42.524;12.052;2023-04-03T14:44:54;6.57;;;1.08;;
58366;SDS011;57745;42.524;12.052;2023-04-03T14:47:20;3.58;;;0.95;;
58366;SDS011;57745;42.524;12.052;2023-04-03T14:49:49;5.82;;;1.25;;
58366;SDS011;57745;42.524;12.052;2023-04-03T14:54:44;4.57;;;1.58;;
58366;SDS011;57745;42.524;12.052;2023-04-03T14:57:11;4.22;;;1.10;;
58366;SDS011;57745;42.524;12.052;2023-04-03T14:59:39;73.25;;;37.15;;
58366;SDS011;57745;42.524;12.052;2023-04-03T15:02:11;63.08;;;36.30;;
58366;SDS011;57745;42.524;12.052;2023-04-03T15:04:50;22.75;;;13.02;;
58366;SDS011;57745;42.524;12.052;2023-04-03T15:07:16;15.45;;;8.57;;
58366;SDS011;57745;42.524;12.052;2023-04-03T15:09:41;8.82;;;4.80;;
58366;SDS011;57745;42.524;12.052;2023-04-03T15:12:08;8.02;;;3.30;;
58366;SDS011;57745;42.524;12.052;2023-04-03T15:14:35;7.85;;;2.20;;
58366;SDS011;57745;42.524;12.052;2023-04-03T15:17:00;4.57;;;2.10;;
58366;SDS011;57745;42.524;12.052;2023-04-03T15:19:27;6.32;;;1.63;;
58366;SDS011;57745;42.524;12.052;2023-04-03T15:21:52;4.50;;;1.27;;
58366;SDS011;57745;42.524;12.052;2023-04-03T15:24:17;4.88;;;1.20;;
58366;SDS011;57745;42.524;12.052;2023-04-03T15:26:43;9.10;;;1.70;;
58366;SDS011;57745;42.524;12.052;2023-04-03T15:29:08;8.05;;;1.60;;
58366;SDS011;57745;42.524;12.052;2023-04-03T15:31:34;4.28;;;1.08;;
58366;SDS011;57745;42.524;12.052;2023-04-03T15:33:59;4.15;;;1.13;;
58366;SDS011;57745;42.524;12.052;2023-04-03T15:36:25;5.03;;;1.70;;
58366;SDS011;57745;42.524;12.052;2023-04-03T15:38:50;5.80;;;1.45;;
58366;SDS011;57745;42.524;12.052;2023-04-03T15:41:16;6.15;;;1.50;;
58366;SDS011;57745;42.524;12.052;2023-04-03T15:43:41;7.00;;;1.65;;
58366;SDS011;57745;42.524;12.052;2023-04-03T15:46:07;8.65;;;2.22;;
58366;SDS011;57745;42.524;12.052;2023-04-03T15:48:33;7.57;;;2.35;;
58366;SDS011;57745;42.524;12.052;2023-04-03T15:50:59;5.07;;;2.50;;
58366;SDS011;57745;42.524;12.052;2023-04-03T15:53:25;7.72;;;2.70;;
58366;SDS011;57745;42.524;12.052;2023-04-03T15:55:51;9.93;;;1.98;;
58366;SDS011;57745;42.524;12.052;2023-04-03T15:58:16;5.25;;;1.20;;
58366;SDS011;57745;42.524;12.052;2023-04-03T16:00:42;7.15;;;1.40;;
58366;SDS011;57745;42.524;12.052;2023-04-03T16:03:09;2.95;;;1.35;;
58366;SDS011;57745;42.524;12.052;2023-04-03T16:05:37;8.10;;;1.52;;
58366;SDS011;57745;42.524;12.052;2023-04-03T16:08:04;6.63;;;2.08;;
58366;SDS011;57745;42.524;12.052;2023-04-03T16:10:31;5.85;;;1.48;;
58366;SDS011;57745;42.524;12.052;2023-04-03T16:12:57;4.47;;;1.30;;
58366;SDS011;57745;42.524;12.052;2023-04-03T16:15:22;6.65;;;1.50;;
58366;SDS011;57745;42.524;12.052;2023-04-03T16:17:49;9.25;;;1.55;;